Avalon Airport
YMAV : now visible

Airfield :











YOU CAN JOIN US ON...

 
LOGIN :

Register | Disclaimer

   EN    FR    IT 

 









Legend :    VFR   Marginal VFR   IFR   Intensive IFR   Very Intensive IFR
Visi :
Ceiling :
>= 8 km
>= 3000ft
5 to 8 km
1000 to 3000 ft
1500m to 5 km
500 to 1000 ft
800 to 1500m
200 to 500 ft
< 800m
< 200 ft
Symbols :   Thunderstorms  Fog  Heavy snow  Heavy precipitations  Wind > 20 kt






- Airport Elevation : 35 ft
- IATA code : AVV


YMAV - Avalon

CURRENT METAR :
  • 191630Z AUTO 31014KT 9999 // OVC025 OVC054 12/08 Q1013

EXPIRED METARs :
  • 191600Z AUTO 31015KT 9999 // OVC029 OVC033 12/08 Q1013
  • 191531Z AUTO 32015G25KT 9999 // BKN031 BKN038 12/08 Q1012
  • 191500Z AUTO 32014KT 9999 // SCT035 BKN040 OVC059 12/08 Q1012
  • 191430Z AUTO 32013KT 9999 // SCT032 BKN046 BKN059 12/08 Q1013
  • 191400Z AUTO 32011KT 9999 // SCT041 SCT049 BKN066 12/08 Q1013

TAF AMD TAF YMAV
Valid from the 19 at 11:00 until the 20 at 12:00 UTC


191134Z 1911/2012 33014KT 9999 -RA SCT050
BECMG 1916/1918 32013KT 9999 -SHRA BKN020
FM192000 24010KT 9999 -SHRA SCT020 BKN030
FM200100 18010KT 9999 NSW BKN040
FM200900 30004KT 9999 BKN040 INTER 1916/1922 4000 SHRA BKN015
YMMM FIR / Oceania



MET'MAP, your aeronautical weather chart ! - Copyright ORBIFLY December 2007 - Disclaimer

ORBIFLY MET'MAP TEAM :

Programming & Development : Alexandra Zaïnal
Original concept : Baudouin d'Aumeries
Technical & hardware support : Manuel Goepfert
Assistance : Marc-Olivier Méhu




SOURCES & CREDITS :

   NOAA       Earth
Advisory